virtualACA

Welcome To Calgary International Airport CYYC

Hub Roster

Pilot Domicile Rank
Ethan Title - ACA1641CanadaChief Pilot
Graham Dawson - ACA2317CanadaChief Pilot
Rashaido Brown - ACA3288JamaicaFirst Officer
Brian Robinson - ACA3342United StatesSecond Officer

Current Vatsim Weather


CYYC 271000Z 19004KT 2 1/2SM -SN OVC007 M12/M13 A2975 RMK SC8 SLP156
Calgary International Airport